Slater, Minnesota
Current Conditions -  °F | °C
As of 12:16 AM on Thursday 29 Jan 2015 (Local Time) from KXVG Reporting Station
Overcast Overcast  
Wind Chill: 26°   Ceiling: 900
Heat Index: 32°   Visibility: 10mi
Dew Point: 30°   Wind: 7mph
Humidity: 93%   Direction: 310°NW
Pressure: 29.88"   Gusts: NA
Location:  47.0973°N, 93.9173°W
Report Text: KXVG 290616Z AUTO 31006KT 10SM BKN009 OVC013 00/M01 A2988 RMK AO2
Loading
Personal Weather Stations






























Interactive Weather Map New forecast layout! Learn more

10-Day Weather Forecast

Advertisements
Track Severe Weather on mobile